Time;durP1;ratioP1;P1;durP2;ratioP2;P2;SDS_P1;SDS_P2;PMS_P1;PMS_P2;Temp;Humidity;BMP_temperature;BMP_pressure;BME280_temperature;BME280_humidity;BME280_pressure;Samples;Min_cycle;Max_cycle;Signal;HPM_P1;HPM_P2
2023/12/07 00:01:07;;;;;;;9.70;5.87;;;;;;;-0.21;100.00;101895.09;4990667;28;20493;-86
2023/12/07 00:03:33;;;;;;;11.23;6.57;;;;;;;-0.26;100.00;101889.81;4976315;28;20060;-86
2023/12/07 00:05:58;;;;;;;13.60;7.03;;;;;;;-0.34;100.00;101901.44;4991992;28;20108;-86
2023/12/07 00:08:23;;;;;;;10.93;6.17;;;;;;;-0.40;100.00;101898.69;4989894;28;20401;-87
2023/12/07 00:10:49;;;;;;;14.43;6.67;;;;;;;-0.44;100.00;101894.25;4990900;28;20481;-87
2023/12/07 00:13:14;;;;;;;13.27;6.10;;;;;;;-0.47;100.00;101895.88;4987279;28;20394;-87
2023/12/07 00:15:40;;;;;;;9.77;5.87;;;;;;;-0.50;100.00;101893.22;4986807;28;20050;-86
2023/12/07 00:18:05;;;;;;;10.87;5.77;;;;;;;-0.55;100.00;101889.63;4972227;28;20053;-86
2023/12/07 00:20:31;;;;;;;10.47;5.77;;;;;;;-0.56;100.00;101889.56;4990798;28;20038;-86
2023/12/07 00:22:56;;;;;;;9.17;5.60;;;;;;;-0.60;100.00;101887.72;4990337;28;20463;-87
2023/12/07 00:25:22;;;;;;;9.30;5.67;;;;;;;-0.60;100.00;101893.69;4993659;28;20429;-86
2023/12/07 00:27:48;;;;;;;8.40;5.10;;;;;;;-0.60;100.00;101888.59;4990118;28;20031;-86
2023/12/07 00:30:13;;;;;;;9.40;5.40;;;;;;;-0.64;100.00;101881.63;4995022;28;20344;-86
2023/12/07 00:32:40;;;;;;;9.13;5.50;;;;;;;-0.66;100.00;101885.78;4987622;28;20105;-87
2023/12/07 00:35:07;;;;;;;8.40;5.13;;;;;;;-0.64;100.00;101886.72;4996162;28;20041;-86
2023/12/07 00:37:33;;;;;;;10.07;5.67;;;;;;;-0.68;100.00;101884.84;4973919;28;20436;-87
2023/12/07 00:39:58;;;;;;;8.60;5.37;;;;;;;-0.69;100.00;101883.16;4995314;28;20482;-86
2023/12/07 00:42:23;;;;;;;9.40;5.53;;;;;;;-0.73;100.00;101882.13;4990843;28;20023;-86
2023/12/07 00:44:49;;;;;;;10.50;6.40;;;;;;;-0.75;100.00;101886.31;4998233;28;20397;-87
2023/12/07 00:47:14;;;;;;;9.93;5.80;;;;;;;-0.80;100.00;101888.69;4992263;28;20026;-86
2023/12/07 00:49:42;;;;;;;9.23;5.57;;;;;;;-0.81;100.00;101889.50;4990547;28;20035;-86
2023/12/07 00:52:08;;;;;;;9.03;5.60;;;;;;;-0.82;100.00;101894.59;4985390;28;20026;-87
2023/12/07 00:54:33;;;;;;;8.87;5.43;;;;;;;-0.78;100.00;101893.88;4991746;28;20029;-86
2023/12/07 00:56:59;;;;;;;8.90;5.47;;;;;;;-0.73;100.00;101901.72;4996466;28;20026;-86
2023/12/07 00:59:24;;;;;;;10.43;6.47;;;;;;;-0.70;100.00;101897.59;4975367;28;20022;-86
2023/12/07 01:01:50;;;;;;;11.50;6.20;;;;;;;-0.66;100.00;101896.00;4993415;28;20065;-87
2023/12/07 01:04:16;;;;;;;10.37;6.03;;;;;;;-0.66;100.00;101893.47;4988688;28;20041;-86
2023/12/07 01:06:42;;;;;;;10.43;6.53;;;;;;;-0.73;100.00;101894.91;4991288;28;20022;-86
2023/12/07 01:09:08;;;;;;;13.13;6.60;;;;;;;-0.79;100.00;101893.00;4978792;28;20174;-87
2023/12/07 01:11:34;;;;;;;12.13;6.83;;;;;;;-0.83;100.00;101900.50;4992905;28;20023;-86
2023/12/07 01:13:59;;;;;;;11.97;6.60;;;;;;;-0.90;100.00;101899.41;4973526;28;20056;-86
2023/12/07 01:16:24;;;;;;;12.57;6.50;;;;;;;-0.98;100.00;101905.88;4974292;28;20513;-86
2023/12/07 01:18:50;;;;;;;14.23;7.10;;;;;;;-1.03;100.00;101912.50;4990073;28;20058;-86
2023/12/07 01:21:15;;;;;;;10.40;6.30;;;;;;;-1.07;100.00;101906.38;4969230;28;20076;-86
2023/12/07 01:23:40;;;;;;;14.07;7.03;;;;;;;-1.09;100.00;101908.91;4976903;28;20108;-87
2023/12/07 01:26:06;;;;;;;18.60;7.10;;;;;;;-1.11;100.00;101909.66;4990255;28;20034;-86
2023/12/07 01:28:32;;;;;;;13.70;6.83;;;;;;;-1.15;100.00;101916.31;4994869;28;20081;-87
2023/12/07 01:30:57;;;;;;;12.77;6.90;;;;;;;-1.17;100.00;101910.25;4988134;28;20025;-86
2023/12/07 01:33:23;;;;;;;11.93;6.10;;;;;;;-1.17;100.00;101905.16;4991724;28;20105;-86
2023/12/07 01:35:48;;;;;;;11.20;6.37;;;;;;;-1.15;100.00;101907.78;4996302;28;20030;-87
2023/12/07 01:38:13;;;;;;;12.63;6.90;;;;;;;-1.19;100.00;101911.88;4990561;28;20022;-86
2023/12/07 01:40:39;;;;;;;11.07;6.93;;;;;;;-1.23;100.00;101913.44;4996349;28;20100;-86
2023/12/07 01:43:04;;;;;;;13.97;6.83;;;;;;;-1.23;100.00;101913.44;5023956;28;20033;-88
2023/12/07 01:45:30;;;;;;;15.00;6.90;;;;;;;-1.26;100.00;101917.56;4994077;28;20109;-86
2023/12/07 01:47:56;;;;;;;11.27;6.37;;;;;;;-1.28;100.00;101912.38;5013494;28;20611;-86
2023/12/07 01:50:23;;;;;;;9.97;5.87;;;;;;;-1.30;100.00;101910.56;5008725;28;20025;-87
2023/12/07 01:52:54;;;;;;;9.20;5.80;;;;;;;-1.31;100.00;101922.50;4995474;28;20025;-87
2023/12/07 01:55:22;;;;;;;10.80;6.10;;;;;;;-1.31;100.00;101922.50;5008095;28;20481;-87
2023/12/07 01:57:49;;;;;;;9.80;5.60;;;;;;;-1.30;100.00;101920.78;5007630;28;20099;-86
2023/12/07 02:00:15;;;;;;;12.00;5.57;;;;;;;-1.29;100.00;101925.09;5000302;28;20025;-86
2023/12/07 02:02:40;;;;;;;8.57;5.43;;;;;;;-1.31;100.00;101917.38;5010526;28;20026;-86
2023/12/07 02:05:07;;;;;;;9.60;5.77;;;;;;;-1.31;100.00;101913.94;5001130;28;20030;-85
2023/12/07 02:07:34;;;;;;;10.63;6.07;;;;;;;-1.31;100.00;101916.50;5004426;28;20021;-86
2023/12/07 02:09:59;;;;;;;9.87;5.80;;;;;;;-1.32;100.00;101919.84;5006815;28;20430;-86
2023/12/07 02:12:25;;;;;;;9.03;5.80;;;;;;;-1.34;100.00;101916.38;4993867;28;20030;-86
2023/12/07 02:14:53;;;;;;;9.93;5.90;;;;;;;-1.38;100.00;101915.38;5012468;28;20048;-86
2023/12/07 02:17:28;;;;;;;9.67;5.63;;;;;;;-1.36;100.00;101913.75;4991953;28;20022;-85
2023/12/07 02:20:05;;;;;;;11.70;6.00;;;;;;;-1.39;100.00;101914.53;5015337;28;20393;-86
2023/12/07 02:22:50;;;;;;;9.80;5.37;;;;;;;-1.44;100.00;101910.91;4992761;28;20112;-86
2023/12/07 02:25:18;;;;;;;10.13;5.93;;;;;;;-1.44;100.00;101913.44;5009459;28;20041;-86
2023/12/07 02:27:47;;;;;;;12.47;6.77;;;;;;;-1.47;100.00;101926.06;5013737;28;20052;-86
2023/12/07 02:30:13;;;;;;;10.57;6.07;;;;;;;-1.51;100.00;101923.34;5010741;28;20022;-86
2023/12/07 02:32:40;;;;;;;10.80;6.00;;;;;;;-1.52;100.00;101917.34;5005768;28;20052;-85
2023/12/07 02:35:06;;;;;;;11.93;6.33;;;;;;;-1.54;100.00;101919.84;4992372;28;20018;-86
2023/12/07 02:37:39;;;;;;;10.30;6.00;;;;;;;-1.53;100.00;101920.72;5015453;28;20015;-86
2023/12/07 02:40:10;;;;;;;11.13;6.00;;;;;;;-1.51;100.00;101926.75;5009800;28;20109;-86
2023/12/07 02:42:36;;;;;;;11.47;5.70;;;;;;;-1.49;100.00;101914.94;4991638;28;20033;-86
2023/12/07 02:45:03;;;;;;;9.90;5.77;;;;;;;-1.50;100.00;101915.75;5005249;28;20042;-86
2023/12/07 02:47:29;;;;;;;12.43;6.10;;;;;;;-1.51;100.00;101919.09;5011007;28;20170;-86
2023/12/07 02:49:54;;;;;;;11.90;6.07;;;;;;;-1.51;100.00;101919.09;5004562;28;20097;-86
2023/12/07 02:52:20;;;;;;;11.13;6.13;;;;;;;-1.53;100.00;101910.50;5014280;28;20075;-86
2023/12/07 02:54:45;;;;;;;10.43;6.03;;;;;;;-1.51;100.00;101919.09;5009741;28;20113;-86
2023/12/07 02:57:12;;;;;;;10.27;5.60;;;;;;;-1.49;100.00;101906.41;5009047;28;20021;-85
2023/12/07 02:59:37;;;;;;;12.03;6.37;;;;;;;-1.47;100.00;101905.66;4993292;28;20022;-85
2023/12/07 03:02:03;;;;;;;15.00;7.53;;;;;;;-1.46;100.00;101904.84;5004227;28;20080;-85
2023/12/07 03:04:28;;;;;;;15.50;7.00;;;;;;;-1.46;100.00;101907.41;5006384;28;20036;-86
2023/12/07 03:06:54;;;;;;;16.93;7.80;;;;;;;-1.47;100.00;101899.69;5012545;28;20334;-86
2023/12/07 03:09:19;;;;;;;13.57;7.87;;;;;;;-1.44;100.00;101900.69;4997363;28;20381;-83
2023/12/07 03:11:44;;;;;;;12.97;7.17;;;;;;;-1.35;100.00;101905.28;5009504;28;20104;-83
2023/12/07 03:14:10;;;;;;;13.87;7.40;;;;;;;-1.26;100.00;101904.78;5004257;28;20022;-83
2023/12/07 03:16:35;;;;;;;14.90;8.03;;;;;;;-1.19;100.00;101906.75;5011504;28;20429;-84
2023/12/07 03:19:01;;;;;;;14.40;7.70;;;;;;;-1.13;100.00;101916.38;5004634;28;20026;-83
2023/12/07 03:21:27;;;;;;;13.40;7.70;;;;;;;-1.10;100.00;101917.38;5012573;28;20036;-84
2023/12/07 03:23:52;;;;;;;14.53;7.47;;;;;;;-1.07;100.00;101912.38;5016836;28;20485;-83
2023/12/07 03:26:17;;;;;;;14.27;7.20;;;;;;;-1.02;100.00;101922.78;5012918;28;20438;-83
2023/12/07 03:28:43;;;;;;;12.07;7.37;;;;;;;-0.99;100.00;101919.47;5014579;28;20432;-83
2023/12/07 03:31:08;;;;;;;12.20;7.03;;;;;;;-0.98;100.00;101923.75;5012851;28;20481;-83
2023/12/07 03:33:33;;;;;;;12.03;7.17;;;;;;;-0.95;100.00;101927.31;5010855;28;20449;-83
2023/12/07 03:35:58;;;;;;;16.67;7.37;;;;;;;-0.93;100.00;101929.94;5010503;28;20032;-83
2023/12/07 03:38:24;;;;;;;13.20;7.67;;;;;;;-0.97;100.00;101925.50;5015086;28;20068;-84
2023/12/07 03:40:49;;;;;;;13.47;7.50;;;;;;;-0.96;100.00;101929.81;4979456;28;20077;-85
2023/12/07 03:43:15;;;;;;;12.33;7.23;;;;;;;-0.96;100.00;101919.59;4988006;28;20026;-83
2023/12/07 03:45:41;;;;;;;12.20;7.33;;;;;;;-0.94;100.00;101921.38;4988876;28;20026;-83
2023/12/07 03:48:06;;;;;;;17.13;7.27;;;;;;;-0.89;100.00;101921.56;4994669;28;20026;-83
2023/12/07 03:50:32;;;;;;;13.50;7.37;;;;;;;-0.88;100.00;101925.00;4970436;28;20065;-83
2023/12/07 03:52:57;;;;;;;12.30;7.10;;;;;;;-0.87;100.00;101925.06;4990044;28;20026;-83
2023/12/07 03:55:22;;;;;;;15.87;8.17;;;;;;;-0.85;100.00;101923.41;4990971;28;20481;-83
2023/12/07 03:57:47;;;;;;;13.27;7.83;;;;;;;-0.85;100.00;101925.13;4991724;28;20605;-83
2023/12/07 04:00:13;;;;;;;12.60;7.33;;;;;;;-0.84;100.00;101939.63;4991386;28;20037;-83
2023/12/07 04:02:38;;;;;;;13.37;7.60;;;;;;;-0.82;100.00;101940.56;4988965;28;20035;-83
2023/12/07 04:05:04;;;;;;;13.17;7.73;;;;;;;-0.82;100.00;101943.97;4989691;28;20098;-83
2023/12/07 04:07:30;;;;;;;19.80;8.50;;;;;;;-0.82;100.00;101950.78;4990763;28;20126;-83
2023/12/07 04:09:57;;;;;;;15.63;8.00;;;;;;;-0.81;100.00;101950.84;4990328;28;20041;-83
2023/12/07 04:12:23;;;;;;;14.13;8.20;;;;;;;-0.81;100.00;101948.28;4968592;28;20386;-83
2023/12/07 04:14:48;;;;;;;13.53;7.90;;;;;;;-0.80;100.00;101946.63;4985148;28;20024;-83
2023/12/07 04:17:13;;;;;;;13.17;7.70;;;;;;;-0.80;100.00;101955.13;4992202;28;20027;-83
2023/12/07 04:19:39;;;;;;;12.47;7.93;;;;;;;-0.78;100.00;101955.22;4992727;28;20557;-83
2023/12/07 04:22:04;;;;;;;13.73;8.23;;;;;;;-0.77;100.00;101947.59;4987092;28;20086;-83
2023/12/07 04:24:29;;;;;;;12.93;7.63;;;;;;;-0.74;100.00;101956.19;4991228;28;20030;-85
2023/12/07 04:26:55;;;;;;;14.60;8.87;;;;;;;-0.73;100.00;101953.69;4986566;28;20018;-83
2023/12/07 04:29:20;;;;;;;18.10;9.13;;;;;;;-0.73;100.00;101953.69;4987444;28;20027;-84
2023/12/07 04:31:45;;;;;;;15.77;8.47;;;;;;;-0.74;100.00;101956.19;4986735;28;20026;-83
2023/12/07 04:34:11;;;;;;;15.60;7.97;;;;;;;-0.72;100.00;101954.56;4988782;28;20397;-83
2023/12/07 04:36:36;;;;;;;15.57;8.80;;;;;;;-0.73;100.00;101952.81;4988319;28;20037;-83
2023/12/07 04:39:01;;;;;;;13.83;7.90;;;;;;;-0.73;100.00;101963.91;4990483;28;20453;-83
2023/12/07 04:41:27;;;;;;;13.40;7.80;;;;;;;-0.72;100.00;101962.25;5002200;28;20041;-84
2023/12/07 04:43:52;;;;;;;15.37;8.60;;;;;;;-0.71;100.00;101956.31;5007017;28;20033;-83
2023/12/07 04:46:17;;;;;;;17.97;8.57;;;;;;;-0.72;100.00;101954.56;5008714;28;20029;-83
2023/12/07 04:48:43;;;;;;;13.50;7.63;;;;;;;-0.74;100.00;101951.09;5005798;28;20030;-83
2023/12/07 04:51:08;;;;;;;18.50;8.87;;;;;;;-0.74;100.00;101951.09;4980994;28;20068;-83
2023/12/07 04:53:33;;;;;;;17.10;8.33;;;;;;;-0.75;100.00;101960.41;4998446;28;20053;-83
2023/12/07 04:55:59;;;;;;;18.00;8.90;;;;;;;-0.78;100.00;101956.06;5002449;28;20393;-83
2023/12/07 04:58:24;;;;;;;15.30;8.37;;;;;;;-0.82;100.00;101959.31;5006546;28;20054;-84
2023/12/07 05:00:49;;;;;;;14.77;8.47;;;;;;;-0.84;100.00;101962.63;4987849;28;20476;-83
2023/12/07 05:03:15;;;;;;;16.97;8.83;;;;;;;-0.88;100.00;101969.31;5003716;28;20034;-83
2023/12/07 05:05:40;;;;;;;18.63;9.17;;;;;;;-0.93;100.00;101958.88;4990684;28;20348;-83
2023/12/07 05:08:05;;;;;;;16.93;8.93;;;;;;;-0.97;100.00;101951.94;4999644;28;21605;-83
2023/12/07 05:10:31;;;;;;;22.83;8.10;;;;;;;-1.00;100.00;101949.25;5010762;28;20026;-83
2023/12/07 05:12:56;;;;;;;16.97;8.50;;;;;;;-1.00;100.00;101943.25;5008830;28;20330;-83
2023/12/07 05:15:22;;;;;;;16.57;8.40;;;;;;;-1.03;100.00;101944.00;5011670;28;20555;-83
2023/12/07 05:17:47;;;;;;;18.90;8.60;;;;;;;-1.02;100.00;101942.31;5007900;28;20036;-83
2023/12/07 05:20:13;;;;;;;14.00;7.67;;;;;;;-1.04;100.00;101942.28;5011885;28;20018;-83
2023/12/07 05:22:38;;;;;;;17.30;7.57;;;;;;;-1.05;100.00;101940.53;5004926;28;20556;-83
2023/12/07 05:25:04;;;;;;;16.60;8.27;;;;;;;-1.05;100.00;101944.78;5003965;28;20133;-83
2023/12/07 05:27:30;;;;;;;14.97;7.57;;;;;;;-1.03;100.00;101940.59;5006759;28;20188;-83
2023/12/07 05:29:55;;;;;;;28.40;7.77;;;;;;;-1.02;100.00;101939.75;5016489;28;20025;-83
2023/12/07 05:32:21;;;;;;;13.47;7.23;;;;;;;-1.02;100.00;101932.09;5010633;28;20044;-83
2023/12/07 05:34:46;;;;;;;20.57;7.73;;;;;;;-1.05;100.00;101945.63;5011997;28;20026;-83
2023/12/07 05:37:11;;;;;;;14.13;7.27;;;;;;;-1.07;100.00;101948.13;5016351;28;20051;-83
2023/12/07 05:39:37;;;;;;;11.27;6.47;;;;;;;-1.10;100.00;101936.91;5014645;28;20068;-83
2023/12/07 05:42:04;;;;;;;11.90;6.20;;;;;;;-1.11;100.00;101936.03;4992602;28;20077;-84
2023/12/07 05:44:29;;;;;;;12.87;6.13;;;;;;;-1.14;100.00;101933.38;4990847;28;20034;-84
2023/12/07 05:46:55;;;;;;;11.97;6.60;;;;;;;-1.15;100.00;101929.06;5011432;28;20409;-84
2023/12/07 05:49:22;;;;;;;14.47;6.10;;;;;;;-1.14;100.00;101928.25;5010546;28;20036;-85
2023/12/07 05:51:48;;;;;;;15.43;5.93;;;;;;;-1.13;100.00;101921.50;4989812;28;20117;-84
2023/12/07 05:54:14;;;;;;;11.43;6.20;;;;;;;-1.13;100.00;101922.34;5007732;28;20198;-84
2023/12/07 05:56:40;;;;;;;11.43;5.93;;;;;;;-1.13;100.00;101935.09;5007750;28;20210;-83
2023/12/07 05:59:06;;;;;;;10.80;5.57;;;;;;;-1.14;100.00;101925.69;5022850;28;20029;-84
2023/12/07 06:01:31;;;;;;;12.17;5.83;;;;;;;-1.12;100.00;101926.63;5013763;28;20029;-83
2023/12/07 06:03:58;;;;;;;11.30;6.03;;;;;;;-1.11;100.00;101915.63;5006920;28;20076;-83
2023/12/07 06:06:23;;;;;;;15.27;5.57;;;;;;;-1.10;100.00;101914.81;5007885;28;21410;-83
2023/12/07 06:08:48;;;;;;;9.47;5.10;;;;;;;-1.10;100.00;101909.69;5010741;28;20589;-83
2023/12/07 06:11:14;;;;;;;10.57;6.10;;;;;;;-1.07;100.00;101909.81;5008618;28;20025;-84
2023/12/07 06:13:41;;;;;;;9.47;5.17;;;;;;;-1.03;100.00;101912.50;5006130;28;20102;-84
2023/12/07 06:16:06;;;;;;;10.03;5.10;;;;;;;-1.00;100.00;101917.72;5012030;28;20034;-83
2023/12/07 06:18:31;;;;;;;11.23;5.50;;;;;;;-1.01;100.00;101921.06;5006419;28;20493;-84
2023/12/07 06:20:57;;;;;;;14.37;5.70;;;;;;;-1.00;100.00;101928.81;5009246;28;21406;-84
2023/12/07 06:23:22;;;;;;;10.27;4.80;;;;;;;-0.97;100.00;101930.59;5005061;28;20095;-84
2023/12/07 06:25:47;;;;;;;9.17;4.97;;;;;;;-0.99;100.00;101937.34;4995747;28;20068;-84
2023/12/07 06:28:13;;;;;;;15.80;5.27;;;;;;;-1.02;100.00;101935.53;5012989;28;20495;-83
2023/12/07 06:30:38;;;;;;;13.33;5.77;;;;;;;-1.02;100.00;101932.09;5007613;28;20025;-84
2023/12/07 06:33:04;;;;;;;12.87;5.23;;;;;;;-1.04;100.00;101932.06;5013722;28;20117;-84
2023/12/07 06:35:30;;;;;;;13.13;5.30;;;;;;;-1.05;100.00;101935.41;5010563;28;20045;-83
2023/12/07 06:37:56;;;;;;;8.73;4.53;;;;;;;-1.07;100.00;101932.81;5010515;28;20030;-83
2023/12/07 06:40:21;;;;;;;10.90;4.83;;;;;;;-1.04;100.00;101936.31;5008873;28;20058;-83
2023/12/07 06:42:48;;;;;;;9.50;5.07;;;;;;;-1.00;100.00;101938.16;5010753;28;20158;-84
2023/12/07 06:45:14;;;;;;;9.13;4.40;;;;;;;-0.96;100.00;101934.91;5010059;28;20030;-83
2023/12/07 06:47:43;;;;;;;9.07;4.60;;;;;;;-0.93;100.00;101935.88;5012574;28;20030;-83
2023/12/07 06:50:12;;;;;;;11.27;5.00;;;;;;;-0.89;100.00;101933.47;5009244;28;20034;-83
2023/12/07 06:52:37;;;;;;;12.73;5.07;;;;;;;-0.91;100.00;101933.41;5008529;28;20116;-85
2023/12/07 06:55:03;;;;;;;11.77;4.80;;;;;;;-0.89;100.00;101936.00;5019046;28;20105;-83
2023/12/07 06:57:28;;;;;;;11.37;5.70;;;;;;;-0.84;100.00;101935.38;5014521;28;20449;-84
2023/12/07 06:59:54;;;;;;;9.97;4.67;;;;;;;-0.85;100.00;101923.41;5012951;28;20025;-83
2023/12/07 07:02:19;;;;;;;14.23;5.00;;;;;;;-0.85;100.00;101920.84;5010003;28;20029;-84
2023/12/07 07:04:45;;;;;;;12.10;5.03;;;;;;;-0.85;100.00;101917.44;5011770;28;20041;-84
2023/12/07 07:07:10;;;;;;;10.80;5.33;;;;;;;-0.85;100.00;101920.00;5013613;28;20030;-83
2023/12/07 07:09:35;;;;;;;13.37;5.03;;;;;;;-0.86;100.00;101905.50;5017269;28;20473;-83
2023/12/07 07:12:01;;;;;;;11.30;4.43;;;;;;;-0.85;100.00;101908.09;4996678;28;20419;-83
2023/12/07 07:14:26;;;;;;;9.77;4.37;;;;;;;-0.83;100.00;101909.03;5010977;28;20497;-83
2023/12/07 07:16:52;;;;;;;9.83;4.30;;;;;;;-0.84;100.00;101912.38;5014387;28;20030;-84
2023/12/07 07:19:17;;;;;;;7.33;3.70;;;;;;;-0.81;100.00;101906.53;5011657;28;20029;-84
2023/12/07 07:21:43;;;;;;;8.50;3.97;;;;;;;-0.76;100.00;101905.00;5018631;28;20038;-83
2023/12/07 07:24:08;;;;;;;8.43;4.17;;;;;;;-0.71;100.00;101902.66;5016258;28;20022;-83
2023/12/07 07:26:34;;;;;;;8.77;4.37;;;;;;;-0.72;100.00;101903.47;5007973;28;20473;-83
2023/12/07 07:28:59;;;;;;;9.83;3.93;;;;;;;-0.71;100.00;101913.72;5010695;28;20084;-84
2023/12/07 07:31:24;;;;;;;10.13;3.83;;;;;;;-0.69;100.00;101912.13;5008129;28;20022;-85
2023/12/07 07:33:50;;;;;;;9.17;3.67;;;;;;;-0.67;100.00;101909.59;5012381;28;20030;-84
2023/12/07 07:36:15;;;;;;;9.13;4.27;;;;;;;-0.65;100.00;101925.88;5008585;28;20021;-83
2023/12/07 07:38:41;;;;;;;9.23;4.30;;;;;;;-0.63;100.00;101921.69;5008576;28;20010;-83
2023/12/07 07:41:07;;;;;;;14.33;5.67;;;;;;;-0.60;100.00;101934.59;5016804;28;20045;-84
2023/12/07 07:43:34;;;;;;;12.27;5.27;;;;;;;-0.60;100.00;101928.63;5006333;28;20026;-84
2023/12/07 07:45:59;;;;;;;12.37;5.33;;;;;;;-0.59;100.00;101930.34;4994864;28;20021;-84
2023/12/07 07:48:25;;;;;;;17.63;7.13;;;;;;;-0.62;100.00;101934.53;4995890;28;20022;-83
2023/12/07 07:50:51;;;;;;;17.43;6.80;;;;;;;-0.63;100.00;101939.59;5013739;28;20105;-83
2023/12/07 07:53:16;;;;;;;16.63;6.73;;;;;;;-0.62;100.00;101946.44;5019258;28;20032;-84
2023/12/07 07:55:42;;;;;;;15.90;6.60;;;;;;;-0.60;100.00;101936.28;4988463;28;20424;-84
2023/12/07 07:58:07;;;;;;;19.47;6.63;;;;;;;-0.60;100.00;101939.69;5010259;28;20018;-84
2023/12/07 08:00:34;;;;;;;15.50;5.80;;;;;;;-0.58;100.00;101935.53;5017984;28;20040;-84
2023/12/07 08:02:59;;;;;;;19.27;7.50;;;;;;;-0.56;100.00;101925.34;5012931;28;20059;-84
2023/12/07 08:05:25;;;;;;;18.80;6.77;;;;;;;-0.54;100.00;101934.84;4996016;28;20022;-83
2023/12/07 08:07:50;;;;;;;16.37;7.17;;;;;;;-0.52;100.00;101932.31;5008081;28;20398;-83
2023/12/07 08:10:16;;;;;;;17.20;7.00;;;;;;;-0.51;100.00;101932.38;5009707;28;20083;-83
2023/12/07 08:12:41;;;;;;;20.73;7.33;;;;;;;-0.51;100.00;101929.81;5017822;28;20128;-83
2023/12/07 08:15:10;;;;;;;16.43;6.73;;;;;;;-0.48;100.00;101924.81;5009882;28;20481;-84
2023/12/07 08:17:40;;;;;;;16.97;6.30;;;;;;;-0.47;100.00;101916.34;4993020;28;20492;-83
2023/12/07 08:20:07;;;;;;;15.00;6.17;;;;;;;-0.46;100.00;101928.31;5009291;28;20026;-84
2023/12/07 08:22:32;;;;;;;14.50;5.93;;;;;;;-0.43;100.00;101921.56;5009527;28;20106;-84
2023/12/07 08:24:59;;;;;;;16.53;6.43;;;;;;;-0.43;100.00;101926.69;5014083;28;20492;-83
2023/12/07 08:27:25;;;;;;;14.77;5.90;;;;;;;-0.42;100.00;101925.88;5004484;28;20470;-84
2023/12/07 08:29:50;;;;;;;13.37;5.40;;;;;;;-0.39;100.00;101931.09;5013615;28;20037;-83
2023/12/07 08:32:18;;;;;;;13.70;5.70;;;;;;;-0.39;100.00;101933.66;5014544;28;20090;-84
2023/12/07 08:34:44;;;;;;;13.23;5.80;;;;;;;-0.37;100.00;101924.38;4997734;28;20030;-83
2023/12/07 08:37:09;;;;;;;13.53;5.97;;;;;;;-0.35;100.00;101925.28;5008604;28;20356;-83
2023/12/07 08:39:35;;;;;;;14.40;5.30;;;;;;;-0.33;100.00;101927.09;5010366;28;20038;-84
2023/12/07 08:42:01;;;;;;;12.67;5.40;;;;;;;-0.28;100.00;101927.25;5007767;28;20079;-83
2023/12/07 08:44:26;;;;;;;13.33;5.60;;;;;;;-0.25;100.00;101919.69;5010485;28;20380;-83
2023/12/07 08:46:51;;;;;;;12.60;5.43;;;;;;;-0.23;100.00;101920.63;5019740;28;20022;-84
2023/12/07 08:49:17;;;;;;;12.43;5.37;;;;;;;-0.22;100.00;101917.25;5019069;28;20036;-84
2023/12/07 08:51:42;;;;;;;13.47;5.53;;;;;;;-0.19;100.00;101926.72;5016010;28;20022;-83
2023/12/07 08:54:08;;;;;;;12.40;5.13;;;;;;;-0.17;100.00;101919.97;5014935;28;20477;-85
2023/12/07 08:56:33;;;;;;;14.40;5.33;;;;;;;-0.18;100.00;101916.56;5015071;28;20030;-84
2023/12/07 08:58:59;;;;;;;12.00;5.57;;;;;;;-0.14;100.00;101926.88;5013591;28;20018;-84
2023/12/07 09:01:26;;;;;;;12.93;6.07;;;;;;;-0.11;100.00;101924.44;5012362;28;20026;-84
2023/12/07 09:03:51;;;;;;;12.27;5.43;;;;;;;-0.09;100.00;101916.00;5010576;28;20050;-84
2023/12/07 09:06:17;;;;;;;13.43;5.67;;;;;;;-0.06;100.00;101918.66;5011229;28;20081;-84
2023/12/07 09:08:43;;;;;;;13.30;5.67;;;;;;;-0.03;100.00;101913.66;5015906;28;20025;-84
2023/12/07 09:11:08;;;;;;;12.77;5.50;;;;;;;0.03;100.00;101917.25;5015312;28;20079;-83
2023/12/07 09:13:34;;;;;;;12.73;4.80;;;;;;;0.06;100.00;101915.66;5014759;28;20033;-84
2023/12/07 09:15:59;;;;;;;13.40;5.77;;;;;;;0.07;100.00;101917.41;5013347;28;20025;-84
2023/12/07 09:18:24;;;;;;;15.03;6.07;;;;;;;0.11;100.00;101915.81;5024095;28;20025;-84
2023/12/07 09:20:50;;;;;;;13.47;5.93;;;;;;;0.12;100.00;101909.88;5016879;28;20089;-83
2023/12/07 09:23:15;;;;;;;15.13;6.03;;;;;;;0.16;100.00;101913.44;5016236;28;20432;-84
2023/12/07 09:25:41;;;;;;;12.90;5.60;;;;;;;0.20;100.00;101910.16;5012460;28;20018;-83
2023/12/07 09:28:07;;;;;;;11.37;5.17;;;;;;;0.23;100.00;101915.38;5022842;28;20427;-83
2023/12/07 09:30:33;;;;;;;14.37;5.80;;;;;;;0.23;100.00;101910.25;5020885;28;20473;-83
2023/12/07 09:32:59;;;;;;;15.83;6.17;;;;;;;0.24;100.00;101917.13;5011204;28;20041;-83
2023/12/07 09:35:24;;;;;;;16.73;7.00;;;;;;;0.25;100.00;101922.31;5014439;28;20034;-83
2023/12/07 09:37:50;;;;;;;16.87;7.03;;;;;;;0.27;100.00;101912.97;5016253;28;20053;-85
2023/12/07 09:40:24;;;;;;;18.10;7.77;;;;;;;0.26;100.00;101905.25;5013782;28;20084;-83
2023/12/07 09:42:50;;;;;;;15.67;7.20;;;;;;;0.26;100.00;101905.25;5013005;28;20037;-85
2023/12/07 09:45:18;;;;;;;16.83;7.43;;;;;;;0.28;100.00;101898.50;5012761;28;20026;-83
2023/12/07 09:47:51;;;;;;;15.33;7.07;;;;;;;0.30;100.00;101896.88;5017340;28;20030;-85
2023/12/07 09:50:22;;;;;;;15.87;6.87;;;;;;;0.30;100.00;101897.72;5000677;28;20133;-84
2023/12/07 09:52:52;;;;;;;14.25;6.20;;;;;;;0.33;100.00;101894.41;5014085;28;20048;-84
2023/12/07 09:55:18;;;;;;;13.33;6.10;;;;;;;0.37;100.00;101883.44;5003328;28;20401;-83
2023/12/07 09:57:45;;;;;;;16.23;6.40;;;;;;;0.40;100.00;101888.66;5013096;28;20063;-84
2023/12/07 10:00:14;;;;;;;15.27;6.57;;;;;;;0.44;100.00;101877.72;5013801;28;20018;-83
2023/12/07 10:02:43;;;;;;;15.73;6.97;;;;;;;0.51;100.00;101880.47;4997606;28;20109;-83
2023/12/07 10:05:13;;;;;;;14.40;6.20;;;;;;;0.57;100.00;101872.97;5016558;28;20021;-84
2023/12/07 10:07:40;;;;;;;15.27;6.83;;;;;;;0.65;100.00;101875.78;4998383;28;20029;-84
2023/12/07 10:10:06;;;;;;;13.37;6.20;;;;;;;0.72;100.00;101865.78;5022588;28;20109;-83
2023/12/07 10:12:35;;;;;;;14.73;6.60;;;;;;;0.79;100.00;101845.50;5008983;28;20113;-86
2023/12/07 10:15:03;;;;;;;15.53;7.07;;;;;;;0.86;100.00;101843.16;5005734;28;20030;-84
2023/12/07 10:17:59;;;;;;;15.47;7.13;;;;;;;0.96;100.00;101836.63;4996206;28;20032;-83
2023/12/07 10:20:29;;;;;;;14.37;6.50;;;;;;;1.00;100.00;101833.34;4997155;28;20030;-83
2023/12/07 10:23:07;;;;;;;16.67;6.97;;;;;;;1.11;100.00;101832.78;5008136;28;20025;-85
2023/12/07 10:25:36;;;;;;;13.37;6.67;;;;;;;1.20;100.00;101825.34;5016218;28;20064;-84
2023/12/07 10:28:06;;;;;;;14.50;6.87;;;;;;;1.22;100.00;101823.69;5014761;28;20018;-86
2023/12/07 10:30:31;;;;;;;14.77;6.90;;;;;;;1.25;100.00;101816.09;5022796;28;20021;-86
2023/12/07 10:32:57;;;;;;;14.60;7.20;;;;;;;1.30;100.00;101824.78;5000729;28;20033;-85
2023/12/07 10:35:22;;;;;;;13.73;6.47;;;;;;;1.34;100.00;101816.38;5006775;28;20018;-86
2023/12/07 10:37:48;;;;;;;15.47;7.00;;;;;;;1.40;100.00;101809.66;5007596;28;20032;-83
2023/12/07 10:40:13;;;;;;;14.47;6.73;;;;;;;1.44;100.00;101796.09;5006758;28;20470;-84
2023/12/07 10:42:41;;;;;;;15.17;7.57;;;;;;;1.48;100.00;101792.81;5009801;28;20358;-84
2023/12/07 10:45:07;;;;;;;14.77;6.97;;;;;;;1.51;100.00;101792.88;5010845;28;20049;-84
2023/12/07 10:47:38;;;;;;;13.03;6.73;;;;;;;1.54;100.00;101798.06;5009351;28;20038;-84
2023/12/07 10:50:11;;;;;;;13.98;6.53;;;;;;;1.56;100.00;101793.88;5009950;28;20362;-85
2023/12/07 10:52:51;;;;;;;15.67;7.07;;;;;;;1.58;100.00;101789.66;5006588;28;20026;-85
2023/12/07 10:55:19;;;;;;;13.50;6.87;;;;;;;1.60;100.00;101772.59;5010623;28;20033;-86
2023/12/07 10:57:47;;;;;;;14.67;6.73;;;;;;;1.66;100.00;101772.78;4992830;28;20029;-85
2023/12/07 11:00:12;;;;;;;13.30;6.63;;;;;;;1.73;100.00;101776.38;5006691;28;20022;-84
2023/12/07 11:02:40;;;;;;;13.60;6.57;;;;;;;1.79;100.00;101773.09;5006727;28;20032;-84
2023/12/07 11:05:06;;;;;;;14.37;6.90;;;;;;;1.86;100.00;101768.97;5008849;28;20040;-83
2023/12/07 11:08:08;;;;;;;13.67;7.30;;;;;;;1.94;100.00;101764.91;5008691;28;20022;-84